PWSweather.com
Personal Weather Stations
Station Observations
ICTSANTV
Sant Vicens De MontaltES 08394

Sant Vicens De MontaltES 08394

Lat: 41.5780716, Lon: 2.5094099

Elevation: 100

Station Type: Davis Vantage Pro 2 Plus

http://www.meteomontalt.net

Latest ConditionsUpdated 2:14:45 AM GMT+01:01 Tuesday, May 30, 2017
Currently Today's Max Today's Min Today's Average
Temperature 68.2°F20.1°C 69.7°F20.9°C 68.2°F20.1°C 68.9°F20.5°C
Dew Point 45.5°F7.5°C 46.5°F8.1°C 44.7°F7.1°C 45.5°F7.5°C
Winds 4.0 mph NE6.4 kmh NE 6.0 mph N9.7 kmh N - 3.0 mph 4.8 kmh
Wind Gusts 5.0 mph8.0 kmh 6.0 mph9.7 kmh - -
Humidity 44% 44% 42% 43%
Pressure 29.97 in1014.9 mb 30.02 in1016.6 mb 29.97 in1014.9 mb -
Hour Temp Dew Point Humidity Winds Wind Gusts Pressure Precip Precip Rate Daily Precip Total
02:14 AM 68.2°F20.1°C 45.5°F7.5°C 44% 4.0 mph NE6.4 kmh NE 5.0 mph8.0 kmh 29.97 in1014.9 mb 0.00 in0.0 mm 0.00 in0.0 mm 0.00 in0.0 mm
02:12 AM 68.2°F20.1°C 45.5°F7.5°C 44% 2.0 mph NE3.2 kmh NE 5.0 mph8.0 kmh 29.97 in1014.9 mb 0.00 in0.0 mm 0.00 in0.0 mm 0.00 in0.0 mm
02:11 AM 68.2°F20.1°C 45.5°F7.5°C 44% 4.0 mph NE6.4 kmh NE 5.0 mph8.0 kmh 29.97 in1014.9 mb 0.00 in0.0 mm 0.00 in0.0 mm 0.00 in0.0 mm
02:10 AM 68.2°F20.1°C 45.5°F7.5°C 44% 3.0 mph NE4.8 kmh NE 4.0 mph6.4 kmh 29.97 in1014.9 mb 0.00 in0.0 mm 0.00 in0.0 mm 0.00 in0.0 mm
02:08 AM 68.3°F20.2°C 45.6°F7.6°C 44% 3.0 mph NE4.8 kmh NE 4.0 mph6.4 kmh 29.97 in1014.9 mb 0.00 in0.0 mm 0.00 in0.0 mm 0.00 in0.0 mm
02:07 AM 68.3°F20.2°C 45.6°F7.6°C 44% 3.0 mph NE4.8 kmh NE 5.0 mph8.0 kmh 29.97 in1014.9 mb 0.00 in0.0 mm 0.00 in0.0 mm 0.00 in0.0 mm
02:06 AM 68.3°F20.2°C 45.6°F7.6°C 44% 4.0 mph NE6.4 kmh NE 5.0 mph8.0 kmh 29.97 in1014.9 mb 0.00 in0.0 mm 0.00 in0.0 mm 0.00 in0.0 mm
02:05 AM 68.3°F20.2°C 45.6°F7.6°C 44% 5.0 mph NE8.0 kmh NE 5.0 mph8.0 kmh 29.97 in1014.9 mb 0.00 in0.0 mm 0.00 in0.0 mm 0.00 in0.0 mm
02:04 AM 68.4°F20.2°C 45.7°F7.6°C 44% 5.0 mph NE8.0 kmh NE 5.0 mph8.0 kmh 29.97 in1014.9 mb 0.00 in0.0 mm 0.00 in0.0 mm 0.00 in0.0 mm
02:03 AM 68.3°F20.2°C 45.0°F7.2°C 43% 4.0 mph NE6.4 kmh NE 4.0 mph6.4 kmh 29.97 in1014.9 mb 0.00 in0.0 mm 0.00 in0.0 mm 0.00 in0.0 mm
02:02 AM 68.3°F20.2°C 45.0°F7.2°C 43% 4.0 mph NE6.4 kmh NE 4.0 mph6.4 kmh 29.97 in1014.9 mb 0.00 in0.0 mm 0.00 in0.0 mm 0.00 in0.0 mm
02:01 AM 68.3°F20.2°C 45.0°F7.2°C 43% 5.0 mph NNE8.0 kmh NNE 5.0 mph8.0 kmh 29.97 in1014.9 mb 0.00 in0.0 mm 0.00 in0.0 mm 0.00 in0.0 mm
02:00 AM 68.3°F20.2°C 45.6°F7.6°C 44% 4.0 mph NNE6.4 kmh NNE 4.0 mph6.4 kmh 29.97 in1014.9 mb 0.00 in0.0 mm 0.00 in0.0 mm 0.00 in0.0 mm
01:59 AM 68.3°F20.2°C 45.6°F7.6°C 44% 4.0 mph NNE6.4 kmh NNE 5.0 mph8.0 kmh 29.97 in1014.9 mb 0.00 in0.0 mm 0.00 in0.0 mm 0.00 in0.0 mm
01:58 AM 68.3°F20.2°C 45.6°F7.6°C 44% 5.0 mph NNE8.0 kmh NNE 5.0 mph8.0 kmh 29.98 in1015.2 mb 0.00 in0.0 mm 0.00 in0.0 mm 0.00 in0.0 mm
01:57 AM 68.4°F20.2°C 45.1°F7.3°C 43% 4.0 mph N6.4 kmh N 5.0 mph8.0 kmh 29.97 in1014.9 mb 0.00 in0.0 mm 0.00 in0.0 mm 0.00 in0.0 mm
01:56 AM 68.4°F20.2°C 45.1°F7.3°C 43% 5.0 mph N8.0 kmh N 5.0 mph8.0 kmh 29.98 in1015.2 mb 0.00 in0.0 mm 0.00 in0.0 mm 0.00 in0.0 mm
01:55 AM 68.4°F20.2°C 45.1°F7.3°C 43% 5.0 mph N8.0 kmh N 5.0 mph8.0 kmh 29.98 in1015.2 mb 0.00 in0.0 mm 0.00 in0.0 mm 0.00 in0.0 mm
01:54 AM 68.4°F20.2°C 45.1°F7.3°C 43% 2.0 mph N3.2 kmh N 4.0 mph6.4 kmh 29.98 in1015.2 mb 0.00 in0.0 mm 0.00 in0.0 mm 0.00 in0.0 mm
01:53 AM 68.4°F20.2°C 45.1°F7.3°C 43% 2.0 mph N3.2 kmh N 2.0 mph3.2 kmh 29.98 in1015.2 mb 0.00 in0.0 mm 0.00 in0.0 mm 0.00 in0.0 mm
01:52 AM 68.4°F20.2°C 45.1°F7.3°C 43% Calm Calm -- 29.98 in1015.2 mb 0.00 in0.0 mm 0.00 in0.0 mm 0.00 in0.0 mm
01:51 AM 68.4°F20.2°C 45.1°F7.3°C 43% Calm Calm -- 29.98 in1015.2 mb 0.00 in0.0 mm 0.00 in0.0 mm 0.00 in0.0 mm
01:50 AM 68.4°F20.2°C 45.1°F7.3°C 43% Calm Calm 1.0 mph1.6 kmh 29.98 in1015.2 mb 0.00 in0.0 mm 0.00 in0.0 mm 0.00 in0.0 mm
01:49 AM 68.4°F20.2°C 45.1°F7.3°C 43% 1.0 mph N1.6 kmh N 1.0 mph1.6 kmh 29.98 in1015.2 mb 0.00 in0.0 mm 0.00 in0.0 mm 0.00 in0.0 mm
01:48 AM 68.5°F20.3°C 45.1°F7.3°C 43% 1.0 mph N1.6 kmh N 2.0 mph3.2 kmh 29.98 in1015.2 mb 0.00 in0.0 mm 0.00 in0.0 mm 0.00 in0.0 mm
01:47 AM 68.5°F20.3°C 45.1°F7.3°C 43% 1.0 mph N1.6 kmh N 1.0 mph1.6 kmh 29.98 in1015.2 mb 0.00 in0.0 mm 0.00 in0.0 mm 0.00 in0.0 mm
01:46 AM 68.5°F20.3°C 45.1°F7.3°C 43% 1.0 mph N1.6 kmh N 2.0 mph3.2 kmh 29.98 in1015.2 mb 0.00 in0.0 mm 0.00 in0.0 mm 0.00 in0.0 mm
01:45 AM 68.5°F20.3°C 45.1°F7.3°C 43% 1.0 mph N1.6 kmh N 2.0 mph3.2 kmh 29.98 in1015.2 mb 0.00 in0.0 mm 0.00 in0.0 mm 0.00 in0.0 mm
01:44 AM 68.5°F20.3°C 45.1°F7.3°C 43% 4.0 mph N6.4 kmh N 4.0 mph6.4 kmh 29.98 in1015.2 mb 0.00 in0.0 mm 0.00 in0.0 mm 0.00 in0.0 mm
01:43 AM 68.6°F20.3°C 45.2°F7.3°C 43% 2.0 mph N3.2 kmh N 2.0 mph3.2 kmh 29.98 in1015.2 mb 0.00 in0.0 mm 0.00 in0.0 mm 0.00 in0.0 mm
01:42 AM 68.7°F20.4°C 45.3°F7.4°C 43% 2.0 mph N3.2 kmh N 2.0 mph3.2 kmh 29.98 in1015.2 mb 0.00 in0.0 mm 0.00 in0.0 mm 0.00 in0.0 mm
01:40 AM 68.7°F20.4°C 45.3°F7.4°C 43% 2.0 mph N3.2 kmh N 4.0 mph6.4 kmh 29.98 in1015.2 mb 0.00 in0.0 mm 0.00 in0.0 mm 0.00 in0.0 mm
01:39 AM 68.8°F20.4°C 45.4°F7.4°C 43% 4.0 mph N6.4 kmh N 4.0 mph6.4 kmh 29.98 in1015.2 mb 0.00 in0.0 mm 0.00 in0.0 mm 0.00 in0.0 mm
01:38 AM 68.8°F20.4°C 45.4°F7.4°C 43% 2.0 mph N3.2 kmh N 5.0 mph8.0 kmh 29.98 in1015.2 mb 0.00 in0.0 mm 0.00 in0.0 mm 0.00 in0.0 mm
01:37 AM 68.8°F20.4°C 44.8°F7.1°C 42% 5.0 mph N8.0 kmh N 5.0 mph8.0 kmh 29.98 in1015.2 mb 0.00 in0.0 mm 0.00 in0.0 mm 0.00 in0.0 mm
01:36 AM 68.7°F20.4°C 44.7°F7.1°C 42% 4.0 mph N6.4 kmh N 5.0 mph8.0 kmh 29.98 in1015.2 mb 0.00 in0.0 mm 0.00 in0.0 mm 0.00 in0.0 mm
01:35 AM 68.7°F20.4°C 44.7°F7.1°C 42% 4.0 mph N6.4 kmh N 5.0 mph8.0 kmh 29.99 in1015.6 mb 0.00 in0.0 mm 0.00 in0.0 mm 0.00 in0.0 mm
01:34 AM 68.7°F20.4°C 45.3°F7.4°C 43% 2.0 mph N3.2 kmh N 4.0 mph6.4 kmh 29.99 in1015.6 mb 0.00 in0.0 mm 0.00 in0.0 mm 0.00 in0.0 mm
01:33 AM 68.8°F20.4°C 45.4°F7.4°C 43% 4.0 mph N6.4 kmh N 4.0 mph6.4 kmh 29.99 in1015.6 mb 0.00 in0.0 mm 0.00 in0.0 mm 0.00 in0.0 mm
01:32 AM 68.8°F20.4°C 45.4°F7.4°C 43% 4.0 mph N6.4 kmh N 4.0 mph6.4 kmh 29.99 in1015.6 mb 0.00 in0.0 mm 0.00 in0.0 mm 0.00 in0.0 mm
01:31 AM 68.8°F20.4°C 45.4°F7.4°C 43% 2.0 mph N3.2 kmh N 2.0 mph3.2 kmh 29.99 in1015.6 mb 0.00 in0.0 mm 0.00 in0.0 mm 0.00 in0.0 mm
01:30 AM 68.8°F20.4°C 45.4°F7.4°C 43% Calm Calm -- 29.99 in1015.6 mb 0.00 in0.0 mm 0.00 in0.0 mm 0.00 in0.0 mm
01:29 AM 68.8°F20.4°C 45.4°F7.4°C 43% Calm Calm -- 29.99 in1015.6 mb 0.00 in0.0 mm 0.00 in0.0 mm 0.00 in0.0 mm
01:28 AM 68.8°F20.4°C 45.4°F7.4°C 43% 1.0 mph N1.6 kmh N 1.0 mph1.6 kmh 29.99 in1015.6 mb 0.00 in0.0 mm 0.00 in0.0 mm 0.00 in0.0 mm
01:27 AM 68.8°F20.4°C 45.4°F7.4°C 43% 2.0 mph N3.2 kmh N 2.0 mph3.2 kmh 29.99 in1015.6 mb 0.00 in0.0 mm 0.00 in0.0 mm 0.00 in0.0 mm
01:26 AM 68.8°F20.4°C 45.4°F7.4°C 43% 4.0 mph N6.4 kmh N 4.0 mph6.4 kmh 29.99 in1015.6 mb 0.00 in0.0 mm 0.00 in0.0 mm 0.00 in0.0 mm
01:25 AM 68.8°F20.4°C 45.4°F7.4°C 43% 2.0 mph N3.2 kmh N 4.0 mph6.4 kmh 29.99 in1015.6 mb 0.00 in0.0 mm 0.00 in0.0 mm 0.00 in0.0 mm
01:24 AM 68.8°F20.4°C 45.4°F7.4°C 43% 2.0 mph N3.2 kmh N 4.0 mph6.4 kmh 29.99 in1015.6 mb 0.00 in0.0 mm 0.00 in0.0 mm 0.00 in0.0 mm
01:23 AM 68.8°F20.4°C 45.4°F7.4°C 43% 2.0 mph N3.2 kmh N 4.0 mph6.4 kmh 29.99 in1015.6 mb 0.00 in0.0 mm 0.00 in0.0 mm 0.00 in0.0 mm
01:22 AM 68.8°F20.4°C 45.4°F7.4°C 43% 4.0 mph N6.4 kmh N 5.0 mph8.0 kmh 29.99 in1015.6 mb 0.00 in0.0 mm 0.00 in0.0 mm 0.00 in0.0 mm
01:21 AM 68.8°F20.4°C 45.4°F7.4°C 43% 4.0 mph N6.4 kmh N 5.0 mph8.0 kmh 29.99 in1015.6 mb 0.00 in0.0 mm 0.00 in0.0 mm 0.00 in0.0 mm
01:20 AM 68.8°F20.4°C 45.4°F7.4°C 43% 4.0 mph N6.4 kmh N 5.0 mph8.0 kmh 29.99 in1015.6 mb 0.00 in0.0 mm 0.00 in0.0 mm 0.00 in0.0 mm
01:19 AM 68.9°F20.5°C 45.5°F7.5°C 43% 4.0 mph N6.4 kmh N 5.0 mph8.0 kmh 29.99 in1015.6 mb 0.00 in0.0 mm 0.00 in0.0 mm 0.00 in0.0 mm
01:18 AM 68.9°F20.5°C 45.5°F7.5°C 43% 5.0 mph N8.0 kmh N 5.0 mph8.0 kmh 29.99 in1015.6 mb 0.00 in0.0 mm 0.00 in0.0 mm 0.00 in0.0 mm
01:17 AM 68.9°F20.5°C 45.5°F7.5°C 43% 4.0 mph N6.4 kmh N 4.0 mph6.4 kmh 29.99 in1015.6 mb 0.00 in0.0 mm 0.00 in0.0 mm 0.00 in0.0 mm
01:16 AM 68.9°F20.5°C 44.9°F7.2°C 42% 4.0 mph N6.4 kmh N 4.0 mph6.4 kmh 29.99 in1015.6 mb 0.00 in0.0 mm 0.00 in0.0 mm 0.00 in0.0 mm
01:15 AM 68.9°F20.5°C 44.9°F7.2°C 42% 4.0 mph N6.4 kmh N 4.0 mph6.4 kmh 29.99 in1015.6 mb 0.00 in0.0 mm 0.00 in0.0 mm 0.00 in0.0 mm
01:14 AM 68.9°F20.5°C 44.9°F7.2°C 42% 4.0 mph N6.4 kmh N 5.0 mph8.0 kmh 29.99 in1015.6 mb 0.00 in0.0 mm 0.00 in0.0 mm 0.00 in0.0 mm
01:12 AM 68.9°F20.5°C 44.9°F7.2°C 42% 4.0 mph N6.4 kmh N 5.0 mph8.0 kmh 29.99 in1015.6 mb 0.00 in0.0 mm 0.00 in0.0 mm 0.00 in0.0 mm
01:11 AM 68.9°F20.5°C 44.9°F7.2°C 42% 6.0 mph N9.7 kmh N 6.0 mph9.7 kmh 30.00 in1015.9 mb 0.00 in0.0 mm 0.00 in0.0 mm 0.00 in0.0 mm
01:10 AM 68.9°F20.5°C 44.9°F7.2°C 42% 4.0 mph N6.4 kmh N 5.0 mph8.0 kmh 30.00 in1015.9 mb 0.00 in0.0 mm 0.00 in0.0 mm 0.00 in0.0 mm
01:09 AM 68.8°F20.4°C 44.8°F7.1°C 42% 4.0 mph N6.4 kmh N 5.0 mph8.0 kmh 30.00 in1015.9 mb 0.00 in0.0 mm 0.00 in0.0 mm 0.00 in0.0 mm
01:08 AM 68.8°F20.4°C 44.8°F7.1°C 42% 5.0 mph N8.0 kmh N 5.0 mph8.0 kmh 30.00 in1015.9 mb 0.00 in0.0 mm 0.00 in0.0 mm 0.00 in0.0 mm
01:07 AM 68.8°F20.4°C 45.4°F7.4°C 43% 4.0 mph N6.4 kmh N 4.0 mph6.4 kmh 30.00 in1015.9 mb 0.00 in0.0 mm 0.00 in0.0 mm 0.00 in0.0 mm
01:05 AM 68.8°F20.4°C 45.4°F7.4°C 43% 4.0 mph NNW6.4 kmh NNW 5.0 mph8.0 kmh 29.99 in1015.6 mb 0.00 in0.0 mm 0.00 in0.0 mm 0.00 in0.0 mm
01:03 AM 68.8°F20.4°C 45.4°F7.4°C 43% 5.0 mph NNE8.0 kmh NNE 5.0 mph8.0 kmh 30.00 in1015.9 mb 0.00 in0.0 mm 0.00 in0.0 mm 0.00 in0.0 mm
01:02 AM 68.8°F20.4°C 45.4°F7.4°C 43% 5.0 mph NNE8.0 kmh NNE 5.0 mph8.0 kmh 30.00 in1015.9 mb 0.00 in0.0 mm 0.00 in0.0 mm 0.00 in0.0 mm
01:00 AM 68.8°F20.4°C 45.4°F7.4°C 43% 3.0 mph NNE4.8 kmh NNE 4.0 mph6.4 kmh 30.00 in1015.9 mb 0.00 in0.0 mm 0.00 in0.0 mm 0.00 in0.0 mm
12:59 AM 68.8°F20.4°C 45.4°F7.4°C 43% 4.0 mph NNE6.4 kmh NNE 4.0 mph6.4 kmh 30.00 in1015.9 mb 0.00 in0.0 mm 0.00 in0.0 mm 0.00 in0.0 mm
12:58 AM 68.8°F20.4°C 45.4°F7.4°C 43% 3.0 mph NNE4.8 kmh NNE 3.0 mph4.8 kmh 30.00 in1015.9 mb 0.00 in0.0 mm 0.00 in0.0 mm 0.00 in0.0 mm
12:57 AM 68.7°F20.4°C 45.3°F7.4°C 43% 3.0 mph NNE4.8 kmh NNE 3.0 mph4.8 kmh 30.00 in1015.9 mb 0.00 in0.0 mm 0.00 in0.0 mm 0.00 in0.0 mm
12:56 AM 68.7°F20.4°C 45.3°F7.4°C 43% 3.0 mph NNE4.8 kmh NNE 3.0 mph4.8 kmh 30.00 in1015.9 mb 0.00 in0.0 mm 0.00 in0.0 mm 0.00 in0.0 mm
12:55 AM 68.7°F20.4°C 45.3°F7.4°C 43% 3.0 mph NNE4.8 kmh NNE 3.0 mph4.8 kmh 30.00 in1015.9 mb 0.00 in0.0 mm 0.00 in0.0 mm 0.00 in0.0 mm
12:54 AM 68.7°F20.4°C 45.3°F7.4°C 43% 2.0 mph NNE3.2 kmh NNE 3.0 mph4.8 kmh 30.00 in1015.9 mb 0.00 in0.0 mm 0.00 in0.0 mm 0.00 in0.0 mm
12:53 AM 68.7°F20.4°C 45.3°F7.4°C 43% 4.0 mph NNE6.4 kmh NNE 4.0 mph6.4 kmh 30.00 in1015.9 mb 0.00 in0.0 mm 0.00 in0.0 mm 0.00 in0.0 mm
12:52 AM 68.7°F20.4°C 45.9°F7.7°C 44% 4.0 mph NNE6.4 kmh NNE 4.0 mph6.4 kmh 30.00 in1015.9 mb 0.00 in0.0 mm 0.00 in0.0 mm 0.00 in0.0 mm
12:51 AM 68.7°F20.4°C 45.9°F7.7°C 44% 3.0 mph NNE4.8 kmh NNE 4.0 mph6.4 kmh 30.00 in1015.9 mb 0.00 in0.0 mm 0.00 in0.0 mm 0.00 in0.0 mm
12:50 AM 68.6°F20.3°C 45.8°F7.7°C 44% 3.0 mph NNE4.8 kmh NNE 4.0 mph6.4 kmh 30.00 in1015.9 mb 0.00 in0.0 mm 0.00 in0.0 mm 0.00 in0.0 mm
12:49 AM 68.7°F20.4°C 45.9°F7.7°C 44% 3.0 mph NNE4.8 kmh NNE 3.0 mph4.8 kmh 30.00 in1015.9 mb 0.00 in0.0 mm 0.00 in0.0 mm 0.00 in0.0 mm
12:48 AM 68.7°F20.4°C 45.9°F7.7°C 44% 4.0 mph NNE6.4 kmh NNE 5.0 mph8.0 kmh 30.00 in1015.9 mb 0.00 in0.0 mm 0.00 in0.0 mm 0.00 in0.0 mm
12:47 AM 68.8°F20.4°C 46.0°F7.8°C 44% 3.0 mph NNE4.8 kmh NNE 4.0 mph6.4 kmh 30.00 in1015.9 mb 0.00 in0.0 mm 0.00 in0.0 mm 0.00 in0.0 mm
12:46 AM 68.8°F20.4°C 46.0°F7.8°C 44% 4.0 mph NNE6.4 kmh NNE 4.0 mph6.4 kmh 30.00 in1015.9 mb 0.00 in0.0 mm 0.00 in0.0 mm 0.00 in0.0 mm
12:45 AM 68.8°F20.4°C 46.0°F7.8°C 44% 3.0 mph NNE4.8 kmh NNE 4.0 mph6.4 kmh 30.00 in1015.9 mb 0.00 in0.0 mm 0.00 in0.0 mm 0.00 in0.0 mm
12:44 AM 68.9°F20.5°C 46.1°F7.8°C 44% 4.0 mph NNE6.4 kmh NNE 5.0 mph8.0 kmh 30.00 in1015.9 mb 0.00 in0.0 mm 0.00 in0.0 mm 0.00 in0.0 mm
12:43 AM 68.9°F20.5°C 46.1°F7.8°C 44% 4.0 mph NW6.4 kmh NW 4.0 mph6.4 kmh 30.01 in1016.3 mb 0.00 in0.0 mm 0.00 in0.0 mm 0.00 in0.0 mm
12:42 AM 68.9°F20.5°C 46.1°F7.8°C 44% 4.0 mph NW6.4 kmh NW 4.0 mph6.4 kmh 30.01 in1016.3 mb 0.00 in0.0 mm 0.00 in0.0 mm 0.00 in0.0 mm
12:41 AM 69.0°F20.6°C 46.2°F7.9°C 44% 2.0 mph NW3.2 kmh NW 4.0 mph6.4 kmh 30.01 in1016.3 mb 0.00 in0.0 mm 0.00 in0.0 mm 0.00 in0.0 mm
12:40 AM 69.1°F20.6°C 46.3°F7.9°C 44% 2.0 mph NW3.2 kmh NW 4.0 mph6.4 kmh 30.01 in1016.3 mb 0.00 in0.0 mm 0.00 in0.0 mm 0.00 in0.0 mm
12:39 AM 69.1°F20.6°C 46.3°F7.9°C 44% 4.0 mph NW6.4 kmh NW 4.0 mph6.4 kmh 30.01 in1016.3 mb 0.00 in0.0 mm 0.00 in0.0 mm 0.00 in0.0 mm
12:38 AM 69.2°F20.7°C 46.4°F8.0°C 44% 1.0 mph W1.6 kmh W 2.0 mph3.2 kmh 30.01 in1016.3 mb 0.00 in0.0 mm 0.00 in0.0 mm 0.00 in0.0 mm
12:37 AM 69.3°F20.7°C 45.9°F7.7°C 43% 2.0 mph W3.2 kmh W 2.0 mph3.2 kmh 30.01 in1016.3 mb 0.00 in0.0 mm 0.00 in0.0 mm 0.00 in0.0 mm
12:36 AM 69.3°F20.7°C 45.9°F7.7°C 43% 2.0 mph W3.2 kmh W 2.0 mph3.2 kmh 30.01 in1016.3 mb 0.00 in0.0 mm 0.00 in0.0 mm 0.00 in0.0 mm
12:35 AM 69.3°F20.7°C 46.5°F8.1°C 44% 2.0 mph W3.2 kmh W 2.0 mph3.2 kmh 30.01 in1016.3 mb 0.00 in0.0 mm 0.00 in0.0 mm 0.00 in0.0 mm
12:34 AM 69.4°F20.8°C 46.0°F7.8°C 43% Calm Calm 2.0 mph3.2 kmh 30.02 in1016.6 mb 0.00 in0.0 mm 0.00 in0.0 mm 0.00 in0.0 mm
12:33 AM 69.4°F20.8°C 46.0°F7.8°C 43% Calm Calm -- 30.02 in1016.6 mb 0.00 in0.0 mm 0.00 in0.0 mm 0.00 in0.0 mm
12:31 AM 69.5°F20.8°C 45.4°F7.4°C 42% 1.0 mph W1.6 kmh W 1.0 mph1.6 kmh 30.01 in1016.3 mb 0.00 in0.0 mm 0.00 in0.0 mm 0.00 in0.0 mm
12:30 AM 69.5°F20.8°C 45.4°F7.4°C 42% Calm Calm 2.0 mph3.2 kmh 30.01 in1016.3 mb 0.00 in0.0 mm 0.00 in0.0 mm 0.00 in0.0 mm
12:29 AM 69.6°F20.9°C 46.1°F7.8°C 43% 1.0 mph W1.6 kmh W 2.0 mph3.2 kmh 30.01 in1016.3 mb 0.00 in0.0 mm 0.00 in0.0 mm 0.00 in0.0 mm
12:28 AM 69.6°F20.9°C 45.5°F7.5°C 42% 1.0 mph W1.6 kmh W 2.0 mph3.2 kmh 30.01 in1016.3 mb 0.00 in0.0 mm 0.00 in0.0 mm 0.00 in0.0 mm
12:27 AM 69.6°F20.9°C 45.5°F7.5°C 42% 2.0 mph W3.2 kmh W 2.0 mph3.2 kmh 30.01 in1016.3 mb 0.00 in0.0 mm 0.00 in0.0 mm 0.00 in0.0 mm
12:26 AM 69.6°F20.9°C 45.5°F7.5°C 42% 2.0 mph W3.2 kmh W 4.0 mph6.4 kmh 30.01 in1016.3 mb 0.00 in0.0 mm 0.00 in0.0 mm 0.00 in0.0 mm
12:25 AM 69.7°F20.9°C 45.6°F7.6°C 42% 2.0 mph W3.2 kmh W 4.0 mph6.4 kmh 30.01 in1016.3 mb 0.00 in0.0 mm 0.00 in0.0 mm 0.00 in0.0 mm
12:24 AM 69.7°F20.9°C 45.6°F7.6°C 42% Calm Calm 2.0 mph3.2 kmh 30.02 in1016.6 mb 0.00 in0.0 mm 0.00 in0.0 mm 0.00 in0.0 mm
12:23 AM 69.7°F20.9°C 45.6°F7.6°C 42% 1.0 mph W1.6 kmh W 1.0 mph1.6 kmh 30.02 in1016.6 mb 0.00 in0.0 mm 0.00 in0.0 mm 0.00 in0.0 mm
12:22 AM 69.7°F20.9°C 45.6°F7.6°C 42% Calm Calm 1.0 mph1.6 kmh 30.02 in1016.6 mb 0.00 in0.0 mm 0.00 in0.0 mm 0.00 in0.0 mm
12:21 AM 69.7°F20.9°C 45.6°F7.6°C 42% 2.0 mph W3.2 kmh W 4.0 mph6.4 kmh 30.02 in1016.6 mb 0.00 in0.0 mm 0.00 in0.0 mm 0.00 in0.0 mm
12:20 AM 69.6°F20.9°C 45.5°F7.5°C 42% 2.0 mph W3.2 kmh W 4.0 mph6.4 kmh 30.02 in1016.6 mb 0.00 in0.0 mm 0.00 in0.0 mm 0.00 in0.0 mm
12:19 AM 69.6°F20.9°C 45.5°F7.5°C 42% 2.0 mph W3.2 kmh W 4.0 mph6.4 kmh 30.02 in1016.6 mb 0.00 in0.0 mm 0.00 in0.0 mm 0.00 in0.0 mm
12:18 AM 69.6°F20.9°C 45.5°F7.5°C 42% 4.0 mph W6.4 kmh W 4.0 mph6.4 kmh 30.02 in1016.6 mb 0.00 in0.0 mm 0.00 in0.0 mm 0.00 in0.0 mm
12:17 AM 69.5°F20.8°C 45.4°F7.4°C 42% 4.0 mph W6.4 kmh W 4.0 mph6.4 kmh 30.02 in1016.6 mb 0.00 in0.0 mm 0.00 in0.0 mm 0.00 in0.0 mm
12:16 AM 69.4°F20.8°C 45.3°F7.4°C 42% 2.0 mph W3.2 kmh W 4.0 mph6.4 kmh 30.02 in1016.6 mb 0.00 in0.0 mm 0.00 in0.0 mm 0.00 in0.0 mm
12:15 AM 69.4°F20.8°C 45.3°F7.4°C 42% 4.0 mph W6.4 kmh W 4.0 mph6.4 kmh 30.02 in1016.6 mb 0.00 in0.0 mm 0.00 in0.0 mm 0.00 in0.0 mm
12:13 AM 69.3°F20.7°C 45.9°F7.7°C 43% 1.0 mph W1.6 kmh W 5.0 mph8.0 kmh 30.02 in1016.6 mb 0.00 in0.0 mm 0.00 in0.0 mm 0.00 in0.0 mm
12:12 AM 69.2°F20.7°C 45.8°F7.7°C 43% 4.0 mph W6.4 kmh W 6.0 mph9.7 kmh 30.02 in1016.6 mb 0.00 in0.0 mm 0.00 in0.0 mm 0.00 in0.0 mm
12:11 AM 69.1°F20.6°C 45.7°F7.6°C 43% 5.0 mph W8.0 kmh W 5.0 mph8.0 kmh 30.02 in1016.6 mb 0.00 in0.0 mm 0.00 in0.0 mm 0.00 in0.0 mm
12:10 AM 69.1°F20.6°C 45.7°F7.6°C 43% 4.0 mph W6.4 kmh W 5.0 mph8.0 kmh 30.02 in1016.6 mb 0.00 in0.0 mm 0.00 in0.0 mm 0.00 in0.0 mm
12:09 AM 69.1°F20.6°C 45.7°F7.6°C 43% 4.0 mph W6.4 kmh W 5.0 mph8.0 kmh 30.02 in1016.6 mb 0.00 in0.0 mm 0.00 in0.0 mm 0.00 in0.0 mm
12:08 AM 69.2°F20.7°C 45.8°F7.7°C 43% 4.0 mph W6.4 kmh W 5.0 mph8.0 kmh 30.02 in1016.6 mb 0.00 in0.0 mm 0.00 in0.0 mm 0.00 in0.0 mm
12:07 AM 69.2°F20.7°C 45.8°F7.7°C 43% 5.0 mph W8.0 kmh W 6.0 mph9.7 kmh 30.02 in1016.6 mb 0.00 in0.0 mm 0.00 in0.0 mm 0.00 in0.0 mm
12:06 AM 69.2°F20.7°C 45.8°F7.7°C 43% 5.0 mph W8.0 kmh W 5.0 mph8.0 kmh 30.02 in1016.6 mb 0.00 in0.0 mm 0.00 in0.0 mm 0.00 in0.0 mm
12:05 AM 69.2°F20.7°C 45.8°F7.7°C 43% 5.0 mph W8.0 kmh W 6.0 mph9.7 kmh 30.02 in1016.6 mb 0.00 in0.0 mm 0.00 in0.0 mm 0.00 in0.0 mm
12:04 AM 69.2°F20.7°C 45.8°F7.7°C 43% 5.0 mph W8.0 kmh W 6.0 mph9.7 kmh 30.02 in1016.6 mb 0.00 in0.0 mm 0.00 in0.0 mm 0.00 in0.0 mm
12:03 AM 69.2°F20.7°C 45.8°F7.7°C 43% 4.0 mph W6.4 kmh W 5.0 mph8.0 kmh 30.02 in1016.6 mb 0.00 in0.0 mm 0.00 in0.0 mm 0.00 in0.0 mm
12:02 AM 69.2°F20.7°C 45.8°F7.7°C 43% 3.0 mph W4.8 kmh W 6.0 mph9.7 kmh 30.02 in1016.6 mb 0.00 in0.0 mm 0.00 in0.0 mm 0.00 in0.0 mm
12:01 AM 69.2°F20.7°C 45.8°F7.7°C 43% 5.0 mph W8.0 kmh W 6.0 mph9.7 kmh 30.02 in1016.6 mb 0.00 in0.0 mm 0.00 in0.0 mm 0.00 in0.0 mm
12:00 AM 69.2°F20.7°C 45.8°F7.7°C 43% 5.0 mph W8.0 kmh W 6.0 mph9.7 kmh 30.02 in1016.6 mb 0.00 in0.0 mm 0.00 in0.0 mm 0.00 in0.0 mm